Time;durP1;ratioP1;P1;durP2;ratioP2;P2;SDS_P1;SDS_P2;PMS_P1;PMS_P2;Temp;Humidity;BMP_temperature;BMP_pressure;BME280_temperature;BME280_humidity;BME280_pressure;Samples;Min_cycle;Max_cycle;Signal;HPM_P1;HPM_P2
2021/04/07 00:01:35;;;;;;;2.20;2.20;;;;;;;-4.62;100.00;100411.03;5033859;28;20052;-74
2021/04/07 00:04:38;;;;;;;2.28;2.17;;;;;;;-4.67;100.00;100411.31;5033963;28;20048;-74
2021/04/07 00:07:43;;;;;;;1.80;1.80;;;;;;;-4.69;100.00;100405.44;5033721;28;20076;-74
2021/04/07 00:10:47;;;;;;;1.70;1.70;;;;;;;-4.69;100.00;100410.09;5033626;28;20049;-74
2021/04/07 00:13:51;;;;;;;1.60;1.50;;;;;;;-4.66;100.00;100414.81;5033597;28;20068;-74
2021/04/07 00:16:54;;;;;;;1.50;1.50;;;;;;;-4.67;100.00;100415.94;5033032;28;20056;-74
2021/04/07 00:19:57;;;;;;;2.53;1.80;;;;;;;-4.62;100.00;100421.88;5033416;28;20048;-74
2021/04/07 00:23:02;;;;;;;2.63;2.45;;;;;;;-4.63;100.00;100414.88;5033373;28;20056;-75
2021/04/07 00:26:05;;;;;;;1.52;1.52;;;;;;;-4.58;100.00;100415.72;5013741;28;20395;-74
2021/04/07 00:29:08;;;;;;;1.98;1.98;;;;;;;-4.53;100.00;100412.72;5013879;28;20056;-74
2021/04/07 00:32:12;;;;;;;1.58;1.58;;;;;;;-4.54;100.00;100416.56;5013593;28;20470;-73
2021/04/07 00:35:15;;;;;;;2.92;2.22;;;;;;;-4.59;100.00;100416.88;5013536;28;20382;-74
2021/04/07 00:38:19;;;;;;;1.85;1.80;;;;;;;-4.61;100.00;100423.44;5012567;28;20501;-73
2021/04/07 00:41:22;;;;;;;2.22;2.13;;;;;;;-4.69;100.00;100424.47;5013151;28;20529;-73
2021/04/07 00:44:25;;;;;;;1.25;1.25;;;;;;;-4.78;100.00;100428.53;5013303;28;20042;-73
2021/04/07 00:47:29;;;;;;;1.67;1.67;;;;;;;-4.85;100.00;100425.72;5013231;28;20052;-74
2021/04/07 00:50:33;;;;;;;8.05;2.38;;;;;;;-4.86;100.00;100427.63;5013023;28;20497;-73
2021/04/07 00:53:37;;;;;;;3.22;2.92;;;;;;;-4.88;100.00;100429.13;5013178;28;20049;-73
2021/04/07 00:56:41;;;;;;;10.82;2.55;;;;;;;-4.92;100.00;100433.72;5012889;28;20493;-75
2021/04/07 00:59:46;;;;;;;11.27;3.05;;;;;;;-4.97;100.00;100426.63;5013088;28;20053;-73
2021/04/07 01:02:55;;;;;;;2.03;2.03;;;;;;;-5.03;100.00;100433.50;5013414;28;20049;-73
2021/04/07 01:05:58;;;;;;;2.20;2.10;;;;;;;-5.06;100.00;100434.19;5013048;28;20054;-73
2021/04/07 01:09:03;;;;;;;2.85;2.75;;;;;;;-5.11;100.00;100423.59;5013086;28;20048;-75
2021/04/07 01:12:07;;;;;;;3.28;2.50;;;;;;;-5.14;100.00;100426.25;5018031;28;20045;-75
2021/04/07 01:15:13;;;;;;;1.20;1.17;;;;;;;-5.19;100.00;100434.69;5018995;28;20561;-73
2021/04/07 01:18:17;;;;;;;2.33;1.75;;;;;;;-5.27;100.00;100433.75;5013735;28;20382;-74
2021/04/07 01:21:21;;;;;;;1.85;1.85;;;;;;;-5.32;100.00;100431.31;5012852;28;20045;-75
2021/04/07 01:24:25;;;;;;;1.90;1.90;;;;;;;-5.33;100.00;100429.75;5019073;28;20040;-75
2021/04/07 01:27:28;;;;;;;10.45;2.10;;;;;;;-5.31;100.00;100427.47;5033030;28;20068;-75
2021/04/07 01:30:45;;;;;;;7.22;3.22;;;;;;;-5.32;100.00;100428.59;5032561;28;20041;-74
2021/04/07 01:33:49;;;;;;;2.28;2.15;;;;;;;-5.32;100.00;100436.75;5032484;28;20049;-74
2021/04/07 01:36:54;;;;;;;18.08;2.90;;;;;;;-5.33;100.00;100428.97;5032346;28;20049;-74
2021/04/07 01:39:57;;;;;;;1.80;1.80;;;;;;;-5.34;100.00;100441.72;5032383;28;20045;-74
2021/04/07 01:43:01;;;;;;;1.65;1.65;;;;;;;-5.38;100.00;100438.16;5032239;28;20048;-74
2021/04/07 01:46:05;;;;;;;1.83;1.83;;;;;;;-5.43;100.00;100441.16;5032283;28;20049;-74
2021/04/07 01:49:10;;;;;;;2.00;2.00;;;;;;;-5.46;100.00;100437.19;5032099;28;20053;-74
2021/04/07 01:52:13;;;;;;;2.20;2.20;;;;;;;-5.50;100.00;100432.88;5034165;28;20053;-74
2021/04/07 01:55:16;;;;;;;1.50;1.50;;;;;;;-5.50;100.00;100432.88;5036394;28;20068;-73
2021/04/07 01:58:20;;;;;;;1.90;1.90;;;;;;;-5.49;100.00;100434.44;5036265;28;20134;-74
2021/04/07 02:01:24;;;;;;;1.95;1.95;;;;;;;-5.55;100.00;100433.13;5036090;28;20378;-74
2021/04/07 02:04:28;;;;;;;2.45;2.25;;;;;;;-5.57;100.00;100427.28;5036005;28;20068;-73
2021/04/07 02:07:31;;;;;;;5.95;3.95;;;;;;;-5.63;100.00;100434.13;5036166;28;20052;-74
2021/04/07 02:10:35;;;;;;;3.13;2.83;;;;;;;-5.68;100.00;100434.38;5036018;28;20048;-74
2021/04/07 02:13:38;;;;;;;2.50;2.50;;;;;;;-5.70;100.00;100425.81;5035963;28;20056;-73
2021/04/07 02:16:49;;;;;;;3.15;2.95;;;;;;;-5.74;100.00;100424.94;5036095;28;20373;-74
2021/04/07 02:19:52;;;;;;;2.70;2.58;;;;;;;-5.75;100.00;100426.06;5035825;28;20501;-73
2021/04/07 02:22:55;;;;;;;2.10;2.00;;;;;;;-5.80;100.00;100420.91;5035763;28;20405;-73
2021/04/07 02:25:59;;;;;;;1.65;1.65;;;;;;;-5.81;100.00;100424.78;5035714;28;20112;-73
2021/04/07 02:29:03;;;;;;;1.83;1.83;;;;;;;-5.78;100.00;100430.28;5035410;28;20052;-74
2021/04/07 02:32:07;;;;;;;2.35;2.25;;;;;;;-5.73;100.00;100431.94;5035822;28;20057;-73
2021/04/07 02:35:10;;;;;;;1.80;1.80;;;;;;;-5.62;100.00;100435.69;5035729;28;20049;-73
2021/04/07 02:38:14;;;;;;;2.33;2.33;;;;;;;-5.50;100.00;100435.56;5035498;28;20113;-73
2021/04/07 02:41:18;;;;;;;2.97;2.88;;;;;;;-5.35;100.00;100439.38;5035813;28;20057;-74
2021/04/07 02:44:21;;;;;;;1.90;1.90;;;;;;;-5.24;100.00;100427.59;5035603;28;20049;-74
2021/04/07 02:47:25;;;;;;;4.50;2.78;;;;;;;-5.15;100.00;100430.13;5035129;28;20049;-74
2021/04/07 02:50:28;;;;;;;2.00;2.00;;;;;;;-5.12;100.00;100432.91;5035196;28;20048;-73
2021/04/07 02:53:32;;;;;;;2.70;2.60;;;;;;;-5.13;100.00;100428.59;5035154;28;20485;-73
2021/04/07 02:56:35;;;;;;;2.35;2.28;;;;;;;-5.10;100.00;100433.34;5034975;28;20052;-73
2021/04/07 02:59:38;;;;;;;1.88;1.88;;;;;;;-5.07;100.00;100426.41;5035162;28;20044;-73
2021/04/07 03:02:42;;;;;;;1.70;1.70;;;;;;;-5.00;100.00;100427.34;5034741;28;20052;-74
2021/04/07 03:05:45;;;;;;;2.95;2.45;;;;;;;-4.90;100.00;100420.56;5034968;28;20048;-74
2021/04/07 03:08:49;;;;;;;4.00;2.30;;;;;;;-4.78;100.00;100421.19;5035051;28;20056;-74
2021/04/07 03:11:52;;;;;;;3.28;3.13;;;;;;;-4.62;100.00;100423.81;5034884;28;20068;-74
2021/04/07 03:14:56;;;;;;;1.75;1.75;;;;;;;-4.53;100.00;100429.03;5034645;28;20101;-73
2021/04/07 03:17:59;;;;;;;2.17;2.10;;;;;;;-4.46;100.00;100429.16;5034720;28;20048;-73
2021/04/07 03:21:04;;;;;;;1.83;1.73;;;;;;;-4.39;100.00;100435.50;5034612;28;20044;-74
2021/04/07 03:24:08;;;;;;;2.42;1.80;;;;;;;-4.31;100.00;100439.13;5034514;28;20052;-74
2021/04/07 03:27:11;;;;;;;3.00;2.80;;;;;;;-4.29;100.00;100445.00;5034414;28;20493;-74
2021/04/07 03:30:17;;;;;;;1.70;1.70;;;;;;;-4.26;100.00;100436.88;5034561;28;20044;-74
2021/04/07 03:33:21;;;;;;;1.63;1.63;;;;;;;-4.22;100.00;100434.25;5034291;28;20060;-74
2021/04/07 03:36:24;;;;;;;4.93;2.53;;;;;;;-4.20;100.00;100431.97;5034490;28;20488;-73
2021/04/07 03:39:28;;;;;;;3.05;2.85;;;;;;;-4.19;100.00;100433.50;5034339;28;20064;-73
2021/04/07 03:42:31;;;;;;;1.65;1.65;;;;;;;-4.17;100.00;100436.66;5034242;28;20496;-74
2021/04/07 03:45:35;;;;;;;1.80;1.80;;;;;;;-4.13;100.00;100442.94;5034231;28;20064;-74
2021/04/07 03:48:39;;;;;;;1.67;1.67;;;;;;;-4.13;100.00;100445.66;5034208;28;20068;-73
2021/04/07 03:51:42;;;;;;;3.20;3.00;;;;;;;-4.13;100.00;100443.72;5034042;28;20045;-73
2021/04/07 03:54:45;;;;;;;2.17;2.17;;;;;;;-4.10;100.00;100445.72;5033941;28;20064;-73
2021/04/07 03:57:49;;;;;;;2.00;2.00;;;;;;;-4.15;100.00;100445.22;5034177;28;20049;-73
2021/04/07 04:00:53;;;;;;;1.60;1.60;;;;;;;-4.21;100.00;100443.97;5033844;28;20056;-74
2021/04/07 04:03:57;;;;;;;2.05;1.95;;;;;;;-4.35;100.00;100438.28;5033867;28;20048;-74
2021/04/07 04:07:00;;;;;;;2.10;2.00;;;;;;;-4.47;100.00;100450.09;5033622;28;20053;-74
2021/04/07 04:10:04;;;;;;;3.25;2.22;;;;;;;-4.55;100.00;100431.31;5033723;28;20056;-74
2021/04/07 04:13:08;;;;;;;2.03;2.03;;;;;;;-4.63;100.00;100433.88;5033828;28;20064;-74
2021/04/07 04:16:12;;;;;;;1.92;1.88;;;;;;;-4.67;100.00;100430.31;5033085;28;20056;-73
2021/04/07 04:19:15;;;;;;;1.85;1.85;;;;;;;-4.65;100.00;100438.09;5033738;28;20055;-73
2021/04/07 04:26:46;;;;;;;3.05;2.95;;;;;;;-4.48;100.00;100434.94;5014277;28;20391;-74
2021/04/07 04:29:50;;;;;;;2.42;2.40;;;;;;;-4.40;100.00;100436.66;5013531;28;20048;-74
2021/04/07 04:32:53;;;;;;;2.83;2.63;;;;;;;-4.31;100.00;100436.41;5013529;28;20069;-74
2021/04/07 04:35:58;;;;;;;1.85;1.85;;;;;;;-4.25;100.00;100446.63;5013504;28;20045;-74
2021/04/07 04:39:01;;;;;;;2.22;2.22;;;;;;;-4.19;100.00;100447.09;5013652;28;20053;-74
2021/04/07 04:42:05;;;;;;;5.68;2.00;;;;;;;-4.14;100.00;100441.38;5013276;28;20073;-74
2021/04/07 04:45:10;;;;;;;2.80;2.47;;;;;;;-4.08;100.00;100450.78;5013191;28;20049;-73
2021/04/07 04:48:13;;;;;;;12.18;3.15;;;;;;;-4.04;100.00;100449.72;5013592;28;20378;-73
2021/04/07 04:51:16;;;;;;;2.47;2.38;;;;;;;-4.00;100.00;100438.88;5013244;28;20046;-74
2021/04/07 04:54:19;;;;;;;2.15;2.05;;;;;;;-3.93;100.00;100447.16;5013335;28;20057;-74
2021/04/07 04:57:23;;;;;;;3.80;3.60;;;;;;;-3.88;100.00;100449.59;5013295;28;20053;-74
2021/04/07 05:00:26;;;;;;;2.25;2.25;;;;;;;-3.81;100.00;100443.47;5013269;28;20049;-74
2021/04/07 05:03:30;;;;;;;2.15;2.05;;;;;;;-3.77;100.00;100445.09;5013460;28;20049;-74
2021/04/07 05:06:34;;;;;;;3.58;2.88;;;;;;;-3.71;100.00;100457.25;5013029;28;20044;-73
2021/04/07 05:09:37;;;;;;;2.17;2.10;;;;;;;-3.67;100.00;100451.84;5013108;28;20048;-73
2021/04/07 05:12:40;;;;;;;2.35;2.20;;;;;;;-3.62;100.00;100449.63;5013041;28;20053;-73
2021/04/07 05:15:44;;;;;;;2.85;2.75;;;;;;;-3.59;100.00;100456.25;5012921;28;20402;-75
2021/04/07 05:18:47;;;;;;;2.03;1.88;;;;;;;-3.56;100.00;100461.75;5012777;28;20056;-74
2021/04/07 05:21:50;;;;;;;2.25;2.20;;;;;;;-3.51;100.00;100458.69;5012811;28;20046;-74
2021/04/07 05:24:54;;;;;;;1.63;1.63;;;;;;;-3.46;100.00;100454.88;5022945;28;20490;-74
2021/04/07 05:27:57;;;;;;;3.03;2.63;;;;;;;-3.42;100.00;100461.94;5032618;28;20492;-74
2021/04/07 05:31:01;;;;;;;2.92;2.75;;;;;;;-3.40;100.00;100456.91;5032545;28;20061;-74
2021/04/07 05:34:05;;;;;;;2.50;2.40;;;;;;;-3.33;100.00;100459.75;5032661;28;20049;-74
2021/04/07 05:37:09;;;;;;;1.63;1.55;;;;;;;-3.33;100.00;100465.19;5032412;28;20046;-73
2021/04/07 05:40:12;;;;;;;2.50;2.40;;;;;;;-3.27;100.00;100474.63;5032383;28;20048;-74
2021/04/07 05:43:16;;;;;;;2.53;2.42;;;;;;;-3.24;100.00;100467.66;5032622;28;20048;-73
2021/04/07 05:46:19;;;;;;;2.50;2.40;;;;;;;-3.19;100.00;100467.34;5032659;28;20489;-73
2021/04/07 05:49:25;;;;;;;1.80;1.80;;;;;;;-3.14;100.00;100467.81;5031961;28;20493;-74
2021/04/07 05:52:29;;;;;;;2.40;2.20;;;;;;;-3.10;100.00;100468.63;5032474;28;20151;-74
2021/04/07 05:55:33;;;;;;;2.30;2.20;;;;;;;-3.05;100.00;100472.97;5032180;28;20057;-75
2021/04/07 05:58:37;;;;;;;2.42;2.33;;;;;;;-3.03;100.00;100478.84;5032105;28;20052;-74
2021/04/07 06:01:41;;;;;;;24.23;2.83;;;;;;;-2.97;100.00;100471.13;5031080;28;20053;-74
2021/04/07 06:04:44;;;;;;;2.33;2.22;;;;;;;-2.98;100.00;100475.78;5032271;28;20041;-74
2021/04/07 06:07:48;;;;;;;3.35;1.70;;;;;;;-2.99;100.00;100478.91;5032228;28;20068;-74
2021/04/07 06:10:51;;;;;;;3.60;2.22;;;;;;;-3.00;100.00;100482.75;5031584;28;20045;-73
2021/04/07 06:13:54;;;;;;;1.63;1.63;;;;;;;-2.99;100.00;100487.06;5032133;28;20048;-73
2021/04/07 06:16:57;;;;;;;12.40;2.25;;;;;;;-3.05;100.00;100491.28;5032168;28;20050;-75
2021/04/07 06:20:03;;;;;;;5.88;2.25;;;;;;;-3.05;100.00;100480.38;5031974;28;20061;-75
2021/04/07 06:23:08;;;;;;;2.78;2.58;;;;;;;-2.97;100.00;100488.28;5031951;28;20117;-74
2021/04/07 06:26:11;;;;;;;5.57;3.75;;;;;;;-2.91;100.00;100491.47;5011538;28;20042;-74
2021/04/07 06:29:14;;;;;;;2.08;2.08;;;;;;;-2.93;100.00;100491.84;5012564;28;20046;-74
2021/04/07 06:36:44;;;;;;;4.03;3.63;;;;;;;-2.91;100.00;100491.47;5012590;28;20058;-75
2021/04/07 06:39:48;;;;;;;2.22;2.13;;;;;;;-2.80;100.00;100492.38;5015679;28;20382;-74
2021/04/07 06:42:51;;;;;;;1.83;1.73;;;;;;;-2.67;100.00;100491.00;5015796;28;20390;-73
2021/04/07 06:45:55;;;;;;;2.03;2.03;;;;;;;-2.47;100.00;100497.84;5015790;28;20387;-74
2021/04/07 06:48:59;;;;;;;3.60;3.33;;;;;;;-2.32;100.00;100494.13;5015551;28;20383;-74
2021/04/07 06:52:06;;;;;;;9.70;2.97;;;;;;;-2.24;100.00;100501.22;5016533;28;20049;-74
2021/04/07 06:55:10;;;;;;;10.95;3.33;;;;;;;-2.18;100.00;100502.44;5019639;28;20048;-74
2021/04/07 06:58:13;;;;;;;4.00;3.58;;;;;;;-2.22;100.00;100501.63;5022417;28;20049;-74
2021/04/07 07:01:17;;;;;;;11.60;4.05;;;;;;;-2.23;100.00;100510.97;5015074;28;20383;-74
2021/04/07 07:04:20;;;;;;;10.82;2.85;;;;;;;-2.26;100.00;100514.44;5015653;28;20054;-75
2021/04/07 07:07:23;;;;;;;3.03;2.65;;;;;;;-2.26;100.00;100517.19;5016794;28;20050;-75
2021/04/07 07:10:41;;;;;;;4.95;2.88;;;;;;;-2.21;100.00;100519.59;5015672;28;20046;-75
2021/04/07 07:13:45;;;;;;;1.60;1.55;;;;;;;-2.15;100.00;100525.47;5014919;28;20045;-74
2021/04/07 07:16:50;;;;;;;2.83;2.63;;;;;;;-2.10;100.00;100520.47;5014467;28;20497;-74
2021/04/07 07:19:54;;;;;;;2.75;2.33;;;;;;;-2.02;100.00;100511.19;5015105;28;20064;-75
2021/04/07 07:22:58;;;;;;;2.70;2.50;;;;;;;-1.91;100.00;100516.75;5014715;28;20046;-74
2021/04/07 07:26:05;;;;;;;2.08;1.95;;;;;;;-1.78;100.00;100515.31;5033574;28;20048;-73
2021/04/07 07:29:09;;;;;;;1.80;1.70;;;;;;;-1.55;100.00;100521.38;5034478;28;20040;-74
2021/04/07 07:32:12;;;;;;;1.83;1.83;;;;;;;-1.33;100.00;100516.84;5032377;28;20037;-75
2021/04/07 07:35:16;;;;;;;1.33;1.33;;;;;;;-1.10;100.00;100512.72;5033974;28;20492;-75
2021/04/07 07:38:24;;;;;;;1.30;1.30;;;;;;;-0.95;100.00;100510.84;5034094;28;20049;-75
2021/04/07 07:41:34;;;;;;;9.93;1.45;;;;;;;-0.83;100.00;100516.81;5028512;28;20060;-75
2021/04/07 07:44:39;;;;;;;1.55;1.55;;;;;;;-0.70;100.00;100520.00;5032553;28;20056;-76
2021/04/07 07:47:45;;;;;;;1.65;1.60;;;;;;;-0.60;100.00;100518.47;5032616;28;20112;-76
2021/04/07 07:50:49;;;;;;;1.60;1.50;;;;;;;-0.51;100.00;100527.88;5034147;28;20033;-76
2021/04/07 07:53:55;;;;;;;0.88;0.88;;;;;;;-0.45;100.00;100522.81;5034240;28;20046;-75
2021/04/07 07:56:58;;;;;;;1.67;1.67;;;;;;;-0.34;100.00;100531.84;5033982;28;20038;-74
2021/04/07 08:00:09;;;;;;;1.35;1.35;;;;;;;-0.22;100.00;100528.78;5033421;28;20370;-75
2021/04/07 08:07:46;;;;;;;;;;;;;;;0.11;100.00;100527.69;5034633;28;20053;-74
2021/04/07 08:10:49;;;;;;;3.30;1.92;;;;;;;0.12;100.00;100523.78;5034070;28;19913;-75
2021/04/07 08:13:53;;;;;;;5.28;2.22;;;;;;;0.19;100.00;100542.97;5033818;28;20048;-75
2021/04/07 08:16:58;;;;;;;10.20;1.45;;;;;;;0.24;100.00;100537.13;5033608;28;20053;-75
2021/04/07 08:20:03;;;;;;;1.42;1.23;;;;;;;0.31;100.00;100528.88;5033647;28;20131;-75
2021/04/07 08:23:09;;;;;;;1.30;1.30;;;;;;;0.38;100.00;100528.91;5033344;28;20108;-75
2021/04/07 08:26:14;;;;;;;0.80;0.80;;;;;;;0.50;100.00;100531.25;5013850;28;20486;-75
2021/04/07 08:29:18;;;;;;;1.02;1.02;;;;;;;0.53;100.00;100533.22;5013847;28;20051;-74
2021/04/07 08:32:24;;;;;;;1.27;1.27;;;;;;;0.56;100.00;100532.44;5013901;28;20056;-75
2021/04/07 08:35:28;;;;;;;1.30;1.30;;;;;;;0.68;100.00;100532.81;5013579;28;20056;-75
2021/04/07 08:38:33;;;;;;;1.15;1.15;;;;;;;0.81;100.00;100535.94;5013472;28;20052;-75
2021/04/07 08:41:37;;;;;;;1.05;1.05;;;;;;;0.94;100.00;100530.81;5013456;28;20056;-75
2021/04/07 08:44:44;;;;;;;2.05;1.20;;;;;;;0.98;100.00;100529.66;5013418;28;20073;-76
2021/04/07 08:48:01;;;;;;;1.20;1.20;;;;;;;1.04;100.00;100536.28;5013382;28;20065;-75
2021/04/07 08:51:10;;;;;;;1.05;1.05;;;;;;;1.17;100.00;100531.97;5013392;28;20056;-75
2021/04/07 08:54:13;;;;;;;0.73;0.73;;;;;;;1.30;100.00;100543.31;5013329;28;20069;-75
2021/04/07 08:57:32;;;;;;;1.40;1.40;;;;;;;1.37;100.00;100541.31;5013546;28;20061;-76
2021/04/07 09:00:40;;;;;;;1.48;1.40;;;;;;;1.42;100.00;100554.66;5013648;28;20390;-75
2021/04/07 09:03:44;;;;;;;1.52;1.42;;;;;;;1.51;100.00;100546.78;5013017;28;20387;-75
2021/04/07 09:06:59;;;;;;;0.55;0.55;;;;;;;1.67;100.00;100553.78;5013400;28;20061;-75
2021/04/07 09:10:52;;;;;;;1.10;1.10;;;;;;;1.86;100.00;100556.03;5013288;28;20397;-75
2021/04/07 09:14:02;;;;;;;0.82;0.82;;;;;;;2.00;100.00;100551.25;5013777;28;20053;-75
2021/04/07 09:17:06;;;;;;;0.90;0.90;;;;;;;2.17;100.00;100549.59;5019414;28;20048;-74
2021/04/07 09:20:10;;;;;;;1.38;1.25;;;;;;;2.16;100.00;100556.28;5012943;28;20053;-75
2021/04/07 09:27:40;;;;;;;0.90;0.90;;;;;;;2.65;100.00;100558.69;5013363;28;20069;-75
2021/04/07 09:30:48;;;;;;;1.98;1.23;;;;;;;2.57;100.00;100568.19;5013182;28;20045;-75
2021/04/07 09:33:58;;;;;;;0.68;0.68;;;;;;;2.88;100.00;100561.63;5013078;28;20053;-76
2021/04/07 09:37:03;;;;;;;1.00;1.00;;;;;;;3.05;100.00;100555.19;5012957;28;20052;-76
2021/04/07 09:40:16;;;;;;;0.90;0.90;;;;;;;3.34;100.00;100565.91;5012789;28;20413;-75
2021/04/07 09:43:22;;;;;;;0.70;0.70;;;;;;;3.35;100.00;100561.97;5012877;28;20101;-76
2021/04/07 09:46:26;;;;;;;0.93;0.93;;;;;;;3.24;100.00;100561.31;5012864;28;20049;-77
2021/04/07 09:49:32;;;;;;;2.95;0.90;;;;;;;3.15;100.00;100574.75;5012432;28;20382;-75
2021/04/07 09:52:40;;;;;;;0.93;0.93;;;;;;;3.52;100.00;100558.25;5012639;28;20049;-76
2021/04/07 09:55:43;;;;;;;0.60;0.60;;;;;;;3.94;100.00;100562.47;5012003;28;20053;-76
2021/04/07 09:58:50;;;;;;;1.10;1.10;;;;;;;3.85;100.00;100562.97;5012481;28;20052;-76
2021/04/07 10:01:53;;;;;;;3.08;0.98;;;;;;;3.69;100.00;100565.53;5012473;28;20061;-76
2021/04/07 10:04:57;;;;;;;1.27;0.75;;;;;;;3.78;100.00;100563.06;5012513;28;20056;-75
2021/04/07 10:08:15;;;;;;;0.32;0.32;;;;;;;3.88;100.00;100556.63;5012292;28;20053;-77
2021/04/07 10:11:20;;;;;;;0.77;0.77;;;;;;;3.86;100.00;100553.50;5012499;28;20048;-75
2021/04/07 10:14:24;;;;;;;0.60;0.60;;;;;;;3.72;100.00;100556.44;5015919;28;20502;-76
2021/04/07 10:17:32;;;;;;;0.80;0.80;;;;;;;3.79;100.00;100559.09;5015861;28;20061;-76
2021/04/07 10:20:39;;;;;;;0.70;0.70;;;;;;;4.05;100.00;100555.59;5016161;28;20053;-75
2021/04/07 10:23:46;;;;;;;0.70;0.70;;;;;;;4.23;100.00;100547.88;5017696;28;20497;-76
2021/04/07 10:26:50;;;;;;;0.82;0.80;;;;;;;4.63;100.00;100551.63;5035655;28;20057;-77
2021/04/07 10:30:09;;;;;;;0.47;0.47;;;;;;;4.53;100.00;100545.06;5036087;28;20052;-77
2021/04/07 10:33:12;;;;;;;0.80;0.80;;;;;;;4.45;100.00;100546.38;5035667;28;20060;-75
2021/04/07 10:36:16;;;;;;;0.50;0.50;;;;;;;4.36;100.00;100548.09;5035578;28;20052;-78
2021/04/07 10:39:20;;;;;;;0.77;0.77;;;;;;;4.24;100.00;100546.69;5034925;28;20048;-78
2021/04/07 10:42:23;;;;;;;0.90;0.90;;;;;;;4.54;100.00;100548.63;5037950;28;20052;-75
2021/04/07 10:45:27;;;;;;;0.40;0.40;;;;;;;4.76;100.00;100543.53;5037277;28;20048;-77
2021/04/07 10:48:31;;;;;;;2.72;0.80;;;;;;;4.85;100.00;100546.53;5035189;28;20488;-74
2021/04/07 10:51:35;;;;;;;0.70;0.70;;;;;;;4.66;100.00;100544.50;5035147;28;20049;-74
2021/04/07 10:54:38;;;;;;;0.50;0.50;;;;;;;4.60;100.00;100553.25;5035189;28;20048;-74
2021/04/07 10:57:45;;;;;;;1.17;0.70;;;;;;;4.78;100.00;100552.97;5035131;28;20049;-76
2021/04/07 11:00:52;;;;;;;0.80;0.80;;;;;;;5.11;100.00;100551.22;5034274;28;20049;-76
2021/04/07 11:03:55;;;;;;;0.75;0.75;;;;;;;5.36;100.00;100549.56;5035340;28;20500;-75
2021/04/07 11:06:59;;;;;;;0.82;0.82;;;;;;;5.32;98.84;100556.34;5035023;28;20052;-77
2021/04/07 11:10:04;;;;;;;0.80;0.47;;;;;;;5.30;99.20;100554.03;5035111;28;20052;-77
2021/04/07 11:13:09;;;;;;;0.82;0.82;;;;;;;5.25;100.00;100559.22;5034146;28;20493;-77
2021/04/07 11:16:14;;;;;;;0.80;0.80;;;;;;;5.28;100.00;100563.91;5035006;28;20048;-77
2021/04/07 11:19:18;;;;;;;2.47;0.50;;;;;;;5.31;100.00;100568.59;5034766;28;20048;-78
2021/04/07 11:22:21;;;;;;;2.28;0.68;;;;;;;5.31;99.54;100563.06;5034580;28;20052;-77
2021/04/07 11:25:26;;;;;;;2.50;0.98;;;;;;;5.27;99.53;100554.84;5034466;28;20052;-78
2021/04/07 11:28:32;;;;;;;0.60;0.60;;;;;;;5.47;100.00;100565.94;5035101;28;20382;-78
2021/04/07 11:31:35;;;;;;;0.43;0.43;;;;;;;5.41;96.81;100556.56;5034798;28;20108;-77
2021/04/07 11:35:05;;;;;;;4.40;0.70;;;;;;;5.18;99.34;100560.13;5034416;28;20052;-77
2021/04/07 11:38:10;;;;;;;0.60;0.60;;;;;;;5.04;96.93;100562.38;5034828;28;20048;-78
2021/04/07 11:47:20;;;;;;;2.65;0.75;;;;;;;5.18;97.50;100551.06;5034643;28;20053;-78
2021/04/07 11:50:24;;;;;;;2.65;0.65;;;;;;;5.55;97.87;100534.19;5033833;28;20504;-78
2021/04/07 11:53:27;;;;;;;0.30;0.30;;;;;;;5.41;94.82;100545.53;5034178;28;20401;-78
2021/04/07 11:56:31;;;;;;;0.60;0.60;;;;;;;5.11;95.48;100553.97;5034028;28;20056;-78
2021/04/07 11:59:35;;;;;;;0.60;0.60;;;;;;;5.17;91.96;100552.28;5034134;28;20048;-78
2021/04/07 12:02:42;;;;;;;0.40;0.40;;;;;;;5.33;93.74;100557.88;5033952;28;20069;-78
2021/04/07 12:05:46;;;;;;;0.40;0.40;;;;;;;5.72;97.19;100557.91;5034221;28;20048;-77
2021/04/07 12:08:49;;;;;;;1.30;0.68;;;;;;;6.11;91.75;100549.63;5035073;28;20048;-77
2021/04/07 12:11:53;;;;;;;0.47;0.47;;;;;;;6.46;92.96;100552.78;5039091;28;20049;-77
2021/04/07 12:14:57;;;;;;;0.40;0.40;;;;;;;6.44;88.99;100544.94;5036575;28;20052;-77
2021/04/07 12:18:01;;;;;;;11.27;0.43;;;;;;;6.19;85.47;100555.00;5034059;28;20390;-77
2021/04/07 12:21:05;;;;;;;1.85;0.88;;;;;;;6.10;91.18;100556.38;5034411;28;20055;-76
2021/04/07 12:24:08;;;;;;;0.30;0.30;;;;;;;6.42;90.52;100546.56;5033132;28;20492;-75
2021/04/07 12:27:12;;;;;;;2.05;0.32;;;;;;;6.46;87.11;100547.25;5033754;28;20052;-74
2021/04/07 12:30:16;;;;;;;0.32;0.32;;;;;;;6.29;87.03;100549.25;5033555;28;20048;-77
2021/04/07 12:33:23;;;;;;;0.50;0.47;;;;;;;6.13;87.33;100552.75;5033501;28;20041;-77
2021/04/07 12:36:28;;;;;;;0.65;0.65;;;;;;;6.15;92.05;100559.84;5032833;28;20048;-78
2021/04/07 12:39:34;;;;;;;0.65;0.65;;;;;;;6.23;90.05;100555.69;5033145;28;20386;-77
2021/04/07 12:42:37;;;;;;;0.40;0.40;;;;;;;6.40;86.11;100551.75;5033275;28;20521;-77
2021/04/07 12:45:41;;;;;;;1.15;0.40;;;;;;;6.41;89.51;100554.09;5032745;28;20051;-77
2021/04/07 12:48:48;;;;;;;0.28;0.28;;;;;;;6.34;89.31;100559.00;5032808;28;20041;-75
2021/04/07 12:51:51;;;;;;;0.68;0.68;;;;;;;6.49;88.96;100557.47;5033083;28;20044;-76
2021/04/07 12:54:54;;;;;;;0.43;0.43;;;;;;;6.46;94.58;100538.97;5033227;28;20049;-77
2021/04/07 12:58:01;;;;;;;0.20;0.20;;;;;;;6.36;90.67;100548.28;5032345;28;20048;-77
2021/04/07 13:01:05;;;;;;;0.90;0.43;;;;;;;6.40;91.70;100537.94;5031763;28;20048;-76
2021/04/07 13:04:08;;;;;;;0.40;0.40;;;;;;;6.42;89.45;100543.81;5031855;28;20402;-77
2021/04/07 13:07:12;;;;;;;0.32;0.32;;;;;;;6.37;88.68;100556.16;5032936;28;20048;-77
2021/04/07 13:10:22;;;;;;;0.60;0.60;;;;;;;6.20;87.79;100551.03;5032890;28;20389;-78
2021/04/07 13:13:25;;;;;;;0.50;0.50;;;;;;;6.04;89.79;100560.06;5032637;28;20045;-77
2021/04/07 13:16:28;;;;;;;3.08;0.52;;;;;;;6.01;95.15;100544.34;5033066;28;20135;-76
2021/04/07 13:19:32;;;;;;;0.40;0.40;;;;;;;5.95;92.44;100546.84;5032352;28;20504;-76
2021/04/07 13:22:36;;;;;;;0.40;0.40;;;;;;;6.04;92.36;100544.25;5033705;28;20060;-76
2021/04/07 13:25:40;;;;;;;1.65;0.47;;;;;;;6.15;93.72;100546.78;5032598;28;20056;-77
2021/04/07 13:28:44;;;;;;;0.38;0.38;;;;;;;6.26;92.30;100543.78;5032095;28;20057;-76
2021/04/07 13:31:48;;;;;;;0.35;0.35;;;;;;;6.37;92.82;100541.53;5032515;28;20048;-76
2021/04/07 13:37:59;;;;;;;0.60;0.60;;;;;;;6.66;92.04;100545.22;5032815;28;20060;-77
2021/04/07 13:42:41;;;;;;;0.38;0.38;;;;;;;7.05;92.34;100538.69;5032199;28;20048;-75
2021/04/07 13:44:27;;;;;;;0.43;0.43;;;;;;;7.01;88.46;100533.25;5032057;28;20044;-77
2021/04/07 13:47:30;;;;;;;0.20;0.20;;;;;;;6.94;91.27;100538.19;5034611;28;20040;-77
2021/04/07 13:50:34;;;;;;;0.73;0.43;;;;;;;7.07;93.60;100542.59;5036162;28;20045;-77
2021/04/07 13:53:38;;;;;;;4.60;0.35;;;;;;;7.06;91.58;100529.94;5036308;28;20052;-78
2021/04/07 13:57:02;;;;;;;0.20;0.20;;;;;;;6.91;89.30;100528.75;5036117;28;20057;-76
2021/04/07 14:00:07;;;;;;;0.30;0.30;;;;;;;6.81;91.81;100544.44;5036208;28;20044;-76
2021/04/07 14:07:38;;;;;;;0.10;0.10;;;;;;;6.97;94.33;100540.88;5036986;28;20057;-77
2021/04/07 14:10:42;;;;;;;0.20;0.20;;;;;;;6.85;87.44;100531.28;5036264;28;20049;-77
2021/04/07 14:13:45;;;;;;;0.30;0.30;;;;;;;6.70;89.17;100540.38;5035925;28;20056;-76
2021/04/07 14:16:49;;;;;;;0.35;0.35;;;;;;;6.70;94.63;100540.38;5035847;28;20056;-77
2021/04/07 14:19:52;;;;;;;0.20;0.20;;;;;;;6.85;93.33;100541.56;5035953;28;20394;-77
2021/04/07 14:42:00;;;;;;;;;;;;;;;6.78;96.75;100541.75;5016596;28;20493;-77
2021/04/07 14:45:06;;;;;;;0.70;0.70;;;;;;;6.68;98.22;100549.09;5015526;28;19914;-77
2021/04/07 14:48:10;;;;;;;1.15;0.45;;;;;;;6.62;96.19;100544.53;5015535;28;20060;-77
2021/04/07 14:51:34;;;;;;;0.40;0.40;;;;;;;6.54;97.07;100548.69;5015673;28;20489;-77
2021/04/07 14:54:47;;;;;;;0.40;0.30;;;;;;;6.49;100.00;100543.66;5015441;28;20053;-76
2021/04/07 14:57:51;;;;;;;3.03;0.75;;;;;;;6.43;100.00;100537.84;5015103;28;20048;-77
2021/04/07 15:03:47;;;;;;;3.80;1.08;;;;;;;6.50;98.93;100543.22;3080035;23;20052;-77
2021/04/07 15:06:50;;;;;;;0.73;0.40;;;;;;;6.49;100.00;100541.66;4992855;28;20521;-77
2021/04/07 15:09:53;;;;;;;0.40;0.40;;;;;;;6.38;100.00;100537.56;4997459;28;20081;-79